Time;durP1;ratioP1;P1;durP2;ratioP2;P2;SDS_P1;SDS_P2;PMS_P1;PMS_P2;Temp;Humidity;BMP_temperature;BMP_pressure;BME280_temperature;BME280_humidity;BME280_pressure;Samples;Min_cycle;Max_cycle;Signal;HPM_P1;HPM_P2
2021/12/13 00:02:38;;;;;;;15.07;9.18;;;5.00;99.90;;;;;;4960431;28;20044;-81
2021/12/13 00:05:25;;;;;;;13.43;7.65;;;4.90;99.90;;;;;;4960721;28;20040;-83
2021/12/13 00:08:04;;;;;;;13.35;7.90;;;4.90;99.90;;;;;;4960618;28;20012;-84
2021/12/13 00:10:56;;;;;;;16.88;8.43;;;5.00;99.90;;;;;;4960826;28;20036;-85
2021/12/13 00:13:27;;;;;;;16.88;7.90;;;4.90;99.90;;;;;;4959734;28;20044;-83
2021/12/13 00:16:00;;;;;;;14.45;7.43;;;5.00;99.90;;;;;;4960360;28;20043;-84
2021/12/13 00:18:40;;;;;;;13.27;7.47;;;5.00;99.90;;;;;;4959531;28;20036;-84
2021/12/13 00:21:14;;;;;;;15.93;7.40;;;5.10;99.90;;;;;;4959837;28;20095;-83
2021/12/13 00:23:58;;;;;;;14.45;7.55;;;5.00;99.90;;;;;;4959974;28;20027;-83
2021/12/13 00:26:40;;;;;;;11.18;6.70;;;5.10;99.90;;;;;;4958929;28;20047;-84
2021/12/13 00:29:19;;;;;;;11.88;6.70;;;5.10;99.90;;;;;;4959281;28;20031;-85
2021/12/13 00:31:59;;;;;;;10.95;6.10;;;5.10;99.90;;;;;;4959542;28;20020;-83
2021/12/13 00:34:41;;;;;;;14.73;7.30;;;5.10;99.90;;;;;;4959833;28;20067;-84
2021/12/13 00:37:32;;;;;;;11.85;7.13;;;5.20;99.90;;;;;;4959523;28;20054;-84
2021/12/13 00:40:19;;;;;;;13.00;6.35;;;5.20;99.90;;;;;;4948439;29;20028;-86
2021/12/13 00:43:00;;;;;;;12.63;6.07;;;5.30;99.90;;;;;;4944770;29;20054;-86
2021/12/13 00:45:32;;;;;;;12.07;6.72;;;5.20;99.90;;;;;;4947321;29;20032;-85
2021/12/13 00:50:40;;;;;;;11.63;6.20;;;5.30;99.90;;;;;;5006068;28;20062;-86
2021/12/13 00:53:07;;;;;;;12.38;6.47;;;5.30;99.90;;;;;;5009405;28;20094;-87
2021/12/13 00:55:35;;;;;;;9.85;6.13;;;5.30;99.90;;;;;;5009748;28;20023;-87
2021/12/13 00:58:11;;;;;;;13.65;6.38;;;5.30;99.90;;;;;;5013134;28;20037;-85
2021/12/13 01:00:49;;;;;;;11.73;6.45;;;5.30;99.90;;;;;;5014737;28;20057;-86
2021/12/13 01:03:14;;;;;;;12.80;6.97;;;5.40;99.90;;;;;;5016081;28;20109;-85
2021/12/13 01:06:17;;;;;;;11.25;6.20;;;5.40;99.90;;;;;;5014641;28;20034;-85
2021/12/13 01:09:04;;;;;;;11.40;5.63;;;5.40;99.90;;;;;;5011039;28;20454;-85
2021/12/13 01:11:48;;;;;;;10.88;5.85;;;5.40;99.90;;;;;;5008783;28;20114;-85
2021/12/13 01:14:34;;;;;;;10.40;5.87;;;5.40;99.90;;;;;;5009245;28;20045;-85
2021/12/13 01:17:17;;;;;;;10.45;5.72;;;5.40;99.90;;;;;;5011842;28;20102;-84
2021/12/13 01:19:54;;;;;;;11.23;6.43;;;5.50;99.90;;;;;;5017952;28;20042;-84
2021/12/13 01:22:40;;;;;;;11.13;6.43;;;5.50;99.90;;;;;;5009483;28;20034;-86
2021/12/13 01:25:24;;;;;;;11.40;5.45;;;5.50;99.90;;;;;;5010772;28;20082;-84
2021/12/13 01:28:03;;;;;;;10.75;5.80;;;5.50;99.90;;;;;;5013789;28;20049;-86
2021/12/13 01:30:34;;;;;;;13.38;6.60;;;5.50;99.90;;;;;;5016450;28;20386;-83
2021/12/13 01:33:05;;;;;;;13.18;6.57;;;5.50;99.90;;;;;;5010933;28;20026;-85
2021/12/13 01:35:34;;;;;;;11.82;6.30;;;5.50;99.90;;;;;;5008456;28;20468;-84
2021/12/13 01:38:08;;;;;;;13.50;7.28;;;5.50;99.90;;;;;;5009968;28;20018;-85
2021/12/13 01:40:36;;;;;;;15.95;7.65;;;5.50;99.90;;;;;;5009575;28;20037;-85
2021/12/13 01:43:14;;;;;;;12.45;7.00;;;5.50;99.90;;;;;;5008552;28;20041;-85
2021/12/13 01:45:43;;;;;;;13.13;6.97;;;5.40;99.90;;;;;;5020202;28;20053;-84
2021/12/13 01:48:24;;;;;;;13.20;7.80;;;5.40;99.90;;;;;;5020122;28;20014;-84
2021/12/13 01:51:03;;;;;;;13.73;7.63;;;5.40;99.90;;;;;;5020896;28;20062;-84
2021/12/13 01:53:35;;;;;;;14.00;7.05;;;5.40;99.90;;;;;;5016336;28;20041;-85
2021/12/13 01:56:10;;;;;;;12.95;7.28;;;5.50;99.90;;;;;;5020836;28;20039;-84
2021/12/13 01:58:43;;;;;;;14.93;7.53;;;5.50;99.90;;;;;;5021058;28;20015;-84
2021/12/13 02:01:19;;;;;;;13.52;7.13;;;5.50;99.90;;;;;;5020352;28;20045;-85
2021/12/13 02:03:56;;;;;;;14.57;7.05;;;5.50;99.90;;;;;;5019427;28;20011;-84
2021/12/13 02:06:39;;;;;;;15.00;7.68;;;5.50;99.90;;;;;;5019330;28;20089;-85
2021/12/13 02:09:19;;;;;;;14.93;7.53;;;5.50;99.90;;;;;;5015088;28;20014;-85
2021/12/13 02:11:51;;;;;;;13.52;6.97;;;5.50;99.90;;;;;;5012924;28;20033;-86
2021/12/13 02:14:24;;;;;;;13.20;7.50;;;5.60;99.90;;;;;;5013089;28;20034;-85
2021/12/13 02:17:10;;;;;;;11.05;7.05;;;5.60;99.90;;;;;;4989585;28;20052;-85
2021/12/13 02:19:44;;;;;;;14.93;7.28;;;5.60;99.90;;;;;;5007005;28;20035;-86
2021/12/13 02:22:33;;;;;;;12.20;7.13;;;5.50;99.90;;;;;;5008466;28;20034;-85
2021/12/13 02:25:17;;;;;;;14.02;7.90;;;5.50;99.90;;;;;;5008218;28;20036;-85
2021/12/13 02:27:48;;;;;;;13.68;7.47;;;5.50;99.90;;;;;;5013716;28;20045;-84
2021/12/13 02:30:36;;;;;;;14.18;6.82;;;5.50;99.90;;;;;;5015890;28;20038;-86
2021/12/13 02:33:06;;;;;;;14.32;7.57;;;5.50;99.90;;;;;;5016076;28;20034;-86
2021/12/13 02:35:35;;;;;;;13.38;7.65;;;5.50;99.90;;;;;;5018275;28;20034;-85
2021/12/13 02:38:02;;;;;;;12.73;6.97;;;5.50;99.90;;;;;;5016608;28;20042;-85
2021/12/13 02:40:29;;;;;;;14.48;6.95;;;5.50;99.90;;;;;;5015846;28;20077;-84
2021/12/13 02:42:55;;;;;;;12.32;6.47;;;5.50;99.90;;;;;;5011951;28;20018;-84
2021/12/13 02:45:34;;;;;;;11.45;6.88;;;5.50;99.90;;;;;;5013150;28;20034;-85
2021/12/13 02:48:10;;;;;;;10.27;6.65;;;5.50;99.90;;;;;;5013214;28;20474;-85
2021/12/13 02:50:47;;;;;;;12.45;6.63;;;5.50;99.90;;;;;;5011951;28;20034;-84
2021/12/13 02:53:18;;;;;;;10.77;5.82;;;5.50;99.90;;;;;;5012621;28;20045;-85
2021/12/13 02:55:44;;;;;;;11.88;6.07;;;5.60;99.90;;;;;;5018165;28;20034;-83
2021/12/13 02:58:14;;;;;;;12.23;6.65;;;5.60;99.90;;;;;;5018690;28;20030;-83
2021/12/13 03:01:01;;;;;;;12.25;6.60;;;5.60;99.90;;;;;;5018126;28;20049;-83
2021/12/13 03:03:35;;;;;;;10.40;6.03;;;5.60;99.90;;;;;;5015664;28;20125;-84
2021/12/13 03:06:05;;;;;;;10.65;6.22;;;5.50;99.90;;;;;;5006988;28;20038;-84
2021/12/13 03:09:04;;;;;;;10.48;6.45;;;5.50;99.90;;;;;;5006551;28;20048;-86
2021/12/13 03:11:33;;;;;;;11.73;6.10;;;5.50;99.90;;;;;;5006571;28;20051;-86
2021/12/13 03:14:16;;;;;;;9.48;5.20;;;5.50;99.90;;;;;;5017410;28;20077;-85
2021/12/13 03:16:45;;;;;;;10.32;5.80;;;5.50;99.90;;;;;;5009701;28;20035;-85
2021/12/13 03:19:22;;;;;;;9.48;5.60;;;5.50;99.90;;;;;;5006555;28;20038;-85
2021/12/13 03:22:26;;;;;;;7.72;5.00;;;5.50;99.90;;;;;;5006892;28;20041;-85
2021/12/13 03:25:16;;;;;;;9.07;5.40;;;5.50;99.90;;;;;;5007363;28;20026;-86
2021/12/13 03:27:55;;;;;;;7.45;4.68;;;5.50;99.90;;;;;;5009050;28;20042;-85
2021/12/13 03:30:31;;;;;;;8.57;5.32;;;5.50;99.90;;;;;;5012727;28;20034;-86
2021/12/13 03:33:05;;;;;;;7.43;4.85;;;5.50;99.90;;;;;;5010988;28;20035;-86
2021/12/13 03:35:45;;;;;;;10.63;5.05;;;5.50;99.90;;;;;;5006447;28;20086;-85
2021/12/13 03:38:28;;;;;;;6.55;4.50;;;5.60;99.90;;;;;;4988553;28;20038;-85
2021/12/13 03:41:00;;;;;;;6.75;4.72;;;5.50;99.90;;;;;;5008366;28;20054;-86
2021/12/13 03:43:34;;;;;;;10.20;4.47;;;5.60;99.90;;;;;;4995071;28;20042;-86
2021/12/13 03:46:03;;;;;;;6.30;4.20;;;5.50;99.90;;;;;;5014424;28;20018;-85
2021/12/13 03:48:31;;;;;;;5.10;3.67;;;5.50;99.90;;;;;;5012369;28;20082;-85
2021/12/13 03:51:01;;;;;;;6.72;4.43;;;5.50;99.90;;;;;;5016858;28;20033;-84
2021/12/13 03:53:30;;;;;;;5.65;3.72;;;5.40;99.90;;;;;;5013487;28;20040;-86
2021/12/13 03:56:18;;;;;;;4.20;3.40;;;5.40;99.90;;;;;;5013494;28;20021;-84
2021/12/13 03:58:48;;;;;;;4.05;3.17;;;5.40;99.90;;;;;;5017416;28;20101;-85
2021/12/13 04:01:22;;;;;;;4.70;3.40;;;5.30;99.90;;;;;;5018239;28;20042;-84
2021/12/13 04:03:54;;;;;;;4.55;3.03;;;5.30;99.90;;;;;;5018288;28;20027;-83
2021/12/13 04:06:21;;;;;;;3.92;2.83;;;5.30;99.90;;;;;;5017689;28;20042;-85
2021/12/13 04:08:51;;;;;;;4.00;2.90;;;5.30;99.90;;;;;;5018046;28;20018;-84
2021/12/13 04:11:17;;;;;;;3.47;2.45;;;5.20;99.90;;;;;;5017055;28;20018;-83
2021/12/13 04:13:55;;;;;;;2.85;2.50;;;5.10;99.90;;;;;;5017562;28;20022;-84
2021/12/13 04:16:35;;;;;;;3.25;2.20;;;5.20;99.90;;;;;;5017268;28;20058;-84
2021/12/13 04:19:09;;;;;;;4.72;2.67;;;5.10;99.90;;;;;;5010643;28;20037;-84
2021/12/13 04:21:50;;;;;;;4.35;2.20;;;5.20;99.90;;;;;;5012798;28;20030;-86
2021/12/13 04:24:33;;;;;;;3.58;2.30;;;5.20;99.90;;;;;;5011504;28;20041;-84
2021/12/13 04:27:19;;;;;;;2.50;1.90;;;5.10;99.90;;;;;;5008434;28;20031;-84
2021/12/13 04:29:47;;;;;;;2.95;2.05;;;5.10;99.90;;;;;;5019061;28;20102;-83
2021/12/13 04:32:27;;;;;;;3.17;2.17;;;5.10;99.90;;;;;;5021420;28;20057;-84
2021/12/13 04:34:55;;;;;;;2.70;1.70;;;5.10;99.90;;;;;;5020446;28;20026;-84
2021/12/13 04:37:26;;;;;;;2.60;1.70;;;5.10;99.90;;;;;;5020492;28;20050;-85
2021/12/13 04:39:57;;;;;;;3.05;2.00;;;5.00;99.90;;;;;;5020863;28;20065;-83
2021/12/13 04:42:26;;;;;;;2.80;2.00;;;5.00;99.90;;;;;;5020844;28;20022;-84
2021/12/13 04:45:02;;;;;;;2.83;1.70;;;5.00;99.90;;;;;;5004129;28;20029;-84
2021/12/13 04:47:44;;;;;;;2.30;1.60;;;5.00;99.90;;;;;;5019724;28;20074;-85
2021/12/13 04:50:21;;;;;;;3.47;1.80;;;5.00;99.90;;;;;;5019643;28;20065;-83
2021/12/13 04:52:48;;;;;;;2.67;1.80;;;5.00;99.90;;;;;;5019793;28;20073;-86
2021/12/13 04:55:37;;;;;;;2.00;1.80;;;5.00;99.90;;;;;;5013005;28;20522;-85
2021/12/13 04:58:08;;;;;;;4.88;2.25;;;5.00;99.90;;;;;;5017489;28;20138;-87
2021/12/13 05:00:41;;;;;;;3.38;2.08;;;5.00;99.90;;;;;;5014290;28;20050;-85
2021/12/13 05:03:10;;;;;;;2.72;2.33;;;5.00;99.90;;;;;;5012573;28;20030;-86
2021/12/13 05:05:37;;;;;;;2.90;2.30;;;5.00;99.90;;;;;;5013227;28;20026;-87
2021/12/13 05:08:08;;;;;;;3.05;2.30;;;5.00;99.90;;;;;;5019601;28;20065;-83
2021/12/13 05:10:34;;;;;;;3.05;2.22;;;5.00;99.90;;;;;;5013800;28;20109;-86
2021/12/13 05:13:13;;;;;;;3.80;2.88;;;5.10;99.90;;;;;;5012528;28;20049;-84
2021/12/13 05:15:43;;;;;;;3.33;2.50;;;5.10;99.90;;;;;;5017277;28;20049;-84
2021/12/13 05:18:17;;;;;;;4.47;2.75;;;5.10;99.90;;;;;;5014332;28;20041;-84
2021/12/13 05:20:44;;;;;;;3.88;2.90;;;5.10;99.90;;;;;;5018750;28;20038;-85
2021/12/13 05:23:19;;;;;;;3.28;2.45;;;5.10;99.90;;;;;;5016973;28;20031;-85
2021/12/13 05:25:54;;;;;;;3.78;2.78;;;5.10;99.90;;;;;;5016733;28;20038;-86
2021/12/13 05:28:28;;;;;;;3.05;2.40;;;5.10;99.90;;;;;;4996441;28;20098;-85
2021/12/13 05:31:02;;;;;;;3.22;2.70;;;5.10;99.90;;;;;;5011928;28;20037;-85
2021/12/13 05:33:34;;;;;;;4.57;2.30;;;5.10;99.90;;;;;;5014184;28;20040;-87
2021/12/13 05:36:10;;;;;;;5.68;2.80;;;5.10;99.90;;;;;;5014594;28;20035;-85
2021/12/13 05:38:42;;;;;;;3.53;2.70;;;5.10;99.90;;;;;;5013546;28;20022;-85
2021/12/13 05:41:13;;;;;;;4.47;2.67;;;5.20;99.90;;;;;;5020268;28;20026;-83
2021/12/13 05:43:51;;;;;;;3.55;2.30;;;5.20;99.90;;;;;;5020886;28;20022;-83
2021/12/13 05:46:23;;;;;;;4.20;2.40;;;5.20;99.90;;;;;;5019046;28;20042;-84
2021/12/13 05:49:00;;;;;;;2.22;2.03;;;5.10;99.90;;;;;;5019618;28;20085;-85
2021/12/13 05:51:36;;;;;;;3.35;2.47;;;5.20;99.90;;;;;;5020379;28;20036;-83
2021/12/13 05:54:10;;;;;;;3.60;2.20;;;5.20;99.90;;;;;;5014299;28;20045;-84
2021/12/13 05:56:59;;;;;;;2.92;1.95;;;5.20;99.90;;;;;;5015839;28;20070;-86
2021/12/13 05:59:30;;;;;;;2.70;1.73;;;5.20;99.90;;;;;;5016572;28;20055;-85
2021/12/13 06:02:10;;;;;;;2.78;1.98;;;5.20;99.90;;;;;;5015834;28;20053;-84
2021/12/13 06:04:39;;;;;;;2.30;1.90;;;5.20;99.90;;;;;;5018550;28;20033;-84
2021/12/13 06:07:33;;;;;;;2.13;1.67;;;5.20;99.90;;;;;;5016644;28;20031;-87
2021/12/13 06:10:02;;;;;;;1.83;1.63;;;5.20;99.90;;;;;;4996451;28;20061;-86
2021/12/13 06:12:39;;;;;;;3.70;2.72;;;5.30;99.90;;;;;;5016015;28;20061;-84
2021/12/13 06:15:17;;;;;;;1.48;1.35;;;5.30;99.90;;;;;;5013909;28;20030;-87
2021/12/13 06:18:11;;;;;;;2.25;1.40;;;5.30;99.90;;;;;;5016843;28;20035;-86
2021/12/13 06:20:53;;;;;;;1.60;1.40;;;5.30;99.90;;;;;;5016149;28;20089;-85
2021/12/13 06:23:26;;;;;;;2.67;1.65;;;5.30;99.90;;;;;;5014097;28;20030;-86
2021/12/13 06:26:03;;;;;;;1.85;1.52;;;5.30;99.90;;;;;;5011406;28;20037;-87
2021/12/13 06:28:42;;;;;;;1.83;1.05;;;5.30;99.90;;;;;;5011392;28;20425;-86
2021/12/13 06:31:19;;;;;;;1.88;1.38;;;5.30;99.90;;;;;;5012884;28;20151;-86
2021/12/13 06:33:48;;;;;;;1.60;1.40;;;5.40;99.90;;;;;;5012907;28;20030;-88
2021/12/13 06:36:14;;;;;;;2.40;1.73;;;5.30;99.90;;;;;;5010871;28;20324;-86
2021/12/13 06:38:51;;;;;;;1.92;1.38;;;5.30;99.90;;;;;;5008632;28;20030;-87
2021/12/13 06:41:35;;;;;;;2.20;1.60;;;5.30;99.90;;;;;;5007757;28;20113;-87
2021/12/13 06:44:10;;;;;;;3.40;1.67;;;5.40;99.90;;;;;;5006331;28;20034;-86
2021/12/13 06:46:45;;;;;;;5.65;1.23;;;5.40;99.90;;;;;;5006846;28;20037;-88
2021/12/13 06:49:34;;;;;;;1.88;1.40;;;5.40;99.90;;;;;;5009217;28;20042;-89
2021/12/13 06:52:12;;;;;;;1.35;1.25;;;5.40;99.90;;;;;;5007336;28;20041;-87
2021/12/13 06:54:43;;;;;;;2.03;1.30;;;5.40;99.90;;;;;;5007788;28;20252;-85
2021/12/13 06:57:18;;;;;;;2.28;1.10;;;5.40;99.90;;;;;;5022301;23;20030;-87
2021/12/13 07:00:00;;;;;;;1.75;1.33;;;5.40;99.90;;;;;;5010398;28;20034;-88
2021/12/13 07:02:54;;;;;;;2.58;1.40;;;5.40;99.90;;;;;;5008114;28;20030;-87
2021/12/13 07:05:31;;;;;;;1.50;1.20;;;5.50;99.90;;;;;;5010077;28;20098;-88
2021/12/13 07:08:10;;;;;;;2.20;1.48;;;5.40;99.90;;;;;;4987765;28;20039;-83
2021/12/13 07:10:38;;;;;;;1.83;1.42;;;5.50;99.90;;;;;;4989744;28;20034;-86
2021/12/13 07:13:27;;;;;;;2.60;1.75;;;5.50;99.90;;;;;;4993634;28;20350;-84
2021/12/13 07:16:05;;;;;;;1.88;1.60;;;5.40;99.90;;;;;;5000160;28;20304;-84
2021/12/13 07:18:42;;;;;;;3.80;1.92;;;5.40;99.90;;;;;;5013103;28;20035;-84
2021/12/13 07:21:13;;;;;;;3.10;1.90;;;5.50;99.90;;;;;;5001163;28;20034;-81
2021/12/13 07:24:05;;;;;;;7.20;2.50;;;5.50;99.90;;;;;;5009584;28;20127;-84
2021/12/13 07:26:49;;;;;;;3.30;2.40;;;5.50;99.90;;;;;;4992417;28;20074;-84
2021/12/13 07:29:25;;;;;;;3.63;2.38;;;5.50;99.90;;;;;;4997310;28;20023;-84
2021/12/13 07:32:00;;;;;;;3.58;2.95;;;5.50;99.90;;;;;;4997045;28;20026;-85
2021/12/13 07:34:27;;;;;;;4.15;2.78;;;5.60;99.90;;;;;;4996133;28;20066;-86
2021/12/13 07:36:57;;;;;;;4.82;3.22;;;5.60;99.90;;;;;;4985829;28;20021;-87
2021/12/13 07:39:27;;;;;;;6.25;3.10;;;5.60;99.90;;;;;;4987110;28;20038;-85
2021/12/13 07:41:58;;;;;;;4.18;3.08;;;5.60;99.90;;;;;;4989668;28;20042;-85
2021/12/13 07:44:44;;;;;;;4.07;3.20;;;5.70;99.90;;;;;;4995523;28;20065;-84
2021/12/13 07:47:23;;;;;;;4.13;2.90;;;5.70;99.90;;;;;;4992568;28;20030;-85
2021/12/13 07:49:59;;;;;;;5.60;3.78;;;5.60;99.90;;;;;;4991825;28;20026;-87
2021/12/13 07:52:32;;;;;;;5.55;3.88;;;5.60;99.90;;;;;;5004072;28;20097;-85
2021/12/13 07:55:15;;;;;;;5.50;3.15;;;5.70;99.90;;;;;;4989801;28;20033;-88
2021/12/13 07:57:42;;;;;;;6.05;3.85;;;5.70;99.90;;;;;;4983468;28;20093;-86
2021/12/13 08:00:32;;;;;;;5.57;3.85;;;5.70;99.90;;;;;;4974931;28;20023;-85
2021/12/13 08:03:06;;;;;;;4.07;3.58;;;5.70;99.90;;;;;;4991086;28;20039;-88
2021/12/13 08:05:42;;;;;;;3.78;2.90;;;5.70;99.90;;;;;;4984685;28;20659;-85
2021/12/13 08:08:25;;;;;;;4.68;2.88;;;5.70;99.90;;;;;;4978122;28;20046;-87
2021/12/13 08:10:56;;;;;;;4.47;3.38;;;5.70;99.90;;;;;;4993563;28;20022;-89
2021/12/13 08:13:28;;;;;;;3.72;2.78;;;5.70;99.90;;;;;;4999969;28;20031;-88
2021/12/13 08:16:05;;;;;;;3.25;2.80;;;5.70;99.90;;;;;;4989506;28;20057;-86
2021/12/13 08:18:37;;;;;;;4.00;2.78;;;5.70;99.90;;;;;;4995348;28;20030;-84
2021/12/13 08:21:13;;;;;;;4.90;2.28;;;5.80;99.90;;;;;;4995008;28;20035;-86
2021/12/13 08:23:41;;;;;;;2.90;2.10;;;5.80;99.90;;;;;;4993687;28;20027;-87
2021/12/13 08:26:12;;;;;;;2.67;2.42;;;5.80;99.90;;;;;;4990518;28;20023;-87
2021/12/13 08:28:45;;;;;;;3.53;1.98;;;5.80;99.90;;;;;;4992863;28;20074;-88
2021/12/13 08:31:22;;;;;;;2.35;1.83;;;5.80;99.90;;;;;;5013358;28;20035;-81
2021/12/13 08:33:53;;;;;;;2.65;1.70;;;5.90;99.90;;;;;;5013048;28;20042;-84
2021/12/13 08:36:31;;;;;;;2.47;1.83;;;5.90;99.90;;;;;;4997198;28;20007;-84
2021/12/13 08:39:18;;;;;;;1.70;1.40;;;5.90;99.90;;;;;;4996858;28;20023;-86
2021/12/13 08:42:09;;;;;;;3.70;1.50;;;6.00;99.90;;;;;;4997988;28;20050;-87
2021/12/13 08:44:43;;;;;;;1.67;1.30;;;6.00;99.90;;;;;;4991336;28;20031;-85
2021/12/13 08:47:14;;;;;;;2.47;1.30;;;6.00;99.90;;;;;;4997035;28;20031;-86
2021/12/13 08:49:44;;;;;;;1.40;1.30;;;6.00;99.90;;;;;;4996363;28;20054;-86
2021/12/13 08:52:13;;;;;;;1.50;1.40;;;6.00;99.90;;;;;;4995146;28;20031;-86
2021/12/13 08:55:00;;;;;;;1.48;1.30;;;6.00;99.90;;;;;;4995607;28;20281;-86
2021/12/13 08:57:33;;;;;;;2.65;1.10;;;6.00;99.90;;;;;;4995958;28;20053;-85
2021/12/13 09:00:07;;;;;;;2.83;1.30;;;6.10;99.90;;;;;;4991245;28;20062;-88
2021/12/13 09:02:37;;;;;;;1.73;1.30;;;6.00;99.90;;;;;;4983009;28;20038;-87
2021/12/13 09:05:14;;;;;;;1.35;1.00;;;6.00;99.90;;;;;;4985253;28;20031;-87
2021/12/13 09:07:59;;;;;;;1.63;1.30;;;6.00;99.90;;;;;;4987287;28;20046;-86
2021/12/13 09:10:40;;;;;;;0.88;0.88;;;6.00;99.90;;;;;;4984495;28;20102;-87
2021/12/13 09:13:07;;;;;;;1.92;1.25;;;6.00;99.90;;;;;;4993208;28;20048;-87
2021/12/13 09:15:35;;;;;;;3.22;1.75;;;6.00;99.90;;;;;;4976049;28;20072;-87
2021/12/13 09:18:04;;;;;;;3.10;1.75;;;6.00;99.90;;;;;;4985228;28;20065;-88
2021/12/13 09:20:41;;;;;;;1.55;1.30;;;6.10;99.90;;;;;;4988570;28;20023;-86
2021/12/13 09:23:11;;;;;;;2.67;1.85;;;6.20;99.90;;;;;;4987826;28;20027;-88
2021/12/13 09:25:37;;;;;;;1.85;1.50;;;6.30;99.90;;;;;;4986614;28;20023;-89
2021/12/13 09:28:10;;;;;;;2.78;1.98;;;6.30;99.90;;;;;;4988538;28;20033;-88
2021/12/13 09:30:42;;;;;;;4.45;1.65;;;6.40;99.90;;;;;;5000947;28;20061;-87
2021/12/13 09:33:35;;;;;;;2.90;1.88;;;6.50;99.90;;;;;;4992163;28;20092;-87
2021/12/13 09:36:26;;;;;;;2.65;1.75;;;6.50;99.90;;;;;;4998050;28;20030;-86
2021/12/13 09:39:09;;;;;;;2.17;1.83;;;6.60;99.90;;;;;;5000673;28;20049;-84
2021/12/13 09:41:37;;;;;;;3.53;2.38;;;6.60;99.90;;;;;;5001425;28;20027;-85
2021/12/13 09:44:09;;;;;;;2.95;2.00;;;6.80;99.90;;;;;;5000640;28;20019;-86
2021/12/13 09:46:44;;;;;;;3.10;1.95;;;6.80;99.90;;;;;;5000960;28;20042;-85
2021/12/13 09:49:15;;;;;;;;;;;6.90;99.90;;;;;;5001318;28;20039;-87
2021/12/13 09:51:51;;;;;;;4.38;1.95;;;7.00;99.90;;;;;;4998861;28;19898;-87
2021/12/13 09:54:22;;;;;;;2.38;1.65;;;7.30;99.90;;;;;;4999792;28;20019;-86
2021/12/13 09:56:52;;;;;;;3.35;1.65;;;7.60;99.90;;;;;;4974790;28;20078;-86
2021/12/13 09:59:35;;;;;;;2.15;1.75;;;8.00;99.90;;;;;;4997135;28;20091;-86
2021/12/13 10:02:04;;;;;;;2.10;1.45;;;8.00;99.90;;;;;;4979516;28;20031;-86
2021/12/13 10:04:40;;;;;;;1.33;1.20;;;7.90;99.90;;;;;;4980277;28;20087;-86
2021/12/13 10:07:31;;;;;;;2.05;1.50;;;7.90;99.90;;;;;;4996850;28;20038;-87
2021/12/13 10:10:11;;;;;;;2.67;1.40;;;7.90;99.90;;;;;;4979902;28;20098;-87
2021/12/13 10:12:51;;;;;;;1.83;1.50;;;7.90;99.90;;;;;;5001122;28;20210;-87
2021/12/13 10:15:46;;;;;;;2.25;1.40;;;7.80;99.90;;;;;;5010196;28;20047;-87
2021/12/13 10:18:17;;;;;;;2.97;1.77;;;7.90;99.90;;;;;;4973339;28;20415;-87
2021/12/13 10:20:52;;;;;;;3.22;1.52;;;8.00;99.90;;;;;;4974014;29;20499;-86
2021/12/13 10:23:22;;;;;;;1.73;1.35;;;8.00;99.90;;;;;;4990556;28;20059;-86
2021/12/13 10:25:50;;;;;;;2.95;1.60;;;8.10;99.90;;;;;;4992011;28;20497;-87
2021/12/13 10:28:28;;;;;;;1.67;1.50;;;8.10;99.90;;;;;;5015893;28;20015;-85
2021/12/13 10:31:19;;;;;;;1.65;1.45;;;8.00;99.90;;;;;;4999151;28;20055;-87
2021/12/13 10:33:46;;;;;;;2.08;1.63;;;7.80;99.90;;;;;;5006903;28;20062;-88
2021/12/13 10:36:14;;;;;;;3.47;1.63;;;7.60;99.90;;;;;;4997543;28;20034;-86
2021/12/13 10:38:47;;;;;;;1.75;1.45;;;7.50;99.90;;;;;;4999486;28;20054;-85
2021/12/13 10:41:21;;;;;;;3.03;1.48;;;7.30;99.90;;;;;;4994057;28;20042;-85
2021/12/13 10:43:51;;;;;;;2.47;1.70;;;7.30;99.90;;;;;;4989719;28;20033;-88
2021/12/13 10:46:29;;;;;;;1.75;1.40;;;7.20;99.90;;;;;;5010036;28;20027;-86
2021/12/13 10:49:01;;;;;;;1.35;1.25;;;7.10;99.90;;;;;;4997744;28;20037;-87
2021/12/13 10:51:36;;;;;;;1.83;1.40;;;7.10;99.90;;;;;;5016189;23;20050;-86
2021/12/13 10:54:16;;;;;;;1.98;1.60;;;7.10;99.90;;;;;;5017416;28;20056;-86
2021/12/13 10:56:51;;;;;;;2.30;1.40;;;7.10;99.90;;;;;;5016214;28;20034;-86
2021/12/13 10:59:20;;;;;;;2.73;1.67;;;7.00;99.90;;;;;;5008518;28;20061;-87
2021/12/13 11:01:51;;;;;;;2.15;1.50;;;7.00;99.90;;;;;;5047661;23;20109;-86
2021/12/13 11:04:22;;;;;;;4.85;1.90;;;7.00;99.90;;;;;;5018263;28;20023;-87
2021/12/13 11:06:49;;;;;;;2.17;1.58;;;7.00;99.90;;;;;;5016840;28;20410;-86
2021/12/13 11:09:20;;;;;;;2.60;1.50;;;6.90;99.90;;;;;;5007879;28;20359;-85
2021/12/13 11:11:57;;;;;;;2.08;1.70;;;6.90;99.90;;;;;;5002442;28;20026;-86
2021/12/13 11:14:25;;;;;;;2.65;1.50;;;6.90;99.90;;;;;;4993000;28;20076;-86
2021/12/13 11:16:55;;;;;;;1.85;1.60;;;6.90;99.90;;;;;;4994178;28;20378;-85
2021/12/13 11:19:25;;;;;;;1.88;1.52;;;6.80;99.90;;;;;;4996123;28;20448;-84
2021/12/13 11:22:01;;;;;;;2.67;1.67;;;6.80;99.90;;;;;;4999958;28;20019;-84
2021/12/13 11:24:31;;;;;;;4.10;1.50;;;6.80;99.90;;;;;;4985068;28;20058;-87
2021/12/13 11:27:01;;;;;;;3.38;1.70;;;6.80;99.90;;;;;;4984381;28;20038;-84
2021/12/13 11:29:28;;;;;;;1.58;1.30;;;6.80;99.90;;;;;;4982816;28;20553;-87
2021/12/13 11:31:55;;;;;;;1.38;1.27;;;6.70;99.90;;;;;;4985222;28;20031;-85
2021/12/13 11:34:40;;;;;;;2.47;1.42;;;6.70;99.90;;;;;;4996266;28;20031;-84
2021/12/13 11:37:36;;;;;;;1.23;1.13;;;6.60;99.90;;;;;;4985500;28;20026;-86
2021/12/13 11:40:30;;;;;;;2.67;1.65;;;6.60;99.90;;;;;;4985283;28;20039;-85
2021/12/13 11:43:10;;;;;;;1.80;1.50;;;6.60;99.90;;;;;;4984169;28;20034;-90
2021/12/13 11:46:02;;;;;;;1.40;1.30;;;6.60;99.90;;;;;;4984503;28;20030;-86
2021/12/13 11:48:44;;;;;;;1.92;1.75;;;6.60;99.90;;;;;;4982877;28;20043;-87
2021/12/13 11:51:35;;;;;;;2.90;1.90;;;6.70;99.90;;;;;;5000584;28;20402;-86
2021/12/13 11:54:38;;;;;;;3.13;1.80;;;6.70;99.90;;;;;;5003223;28;20034;-87
2021/12/13 11:57:41;;;;;;;2.13;1.60;;;6.70;99.90;;;;;;5002858;28;20098;-85
2021/12/13 12:00:48;;;;;;;2.08;1.45;;;6.60;99.90;;;;;;5004068;28;20058;-86
2021/12/13 12:03:46;;;;;;;2.80;1.90;;;6.50;99.90;;;;;;5001106;28;20046;-87
2021/12/13 12:06:50;;;;;;;3.05;1.77;;;6.50;99.90;;;;;;4995115;28;20029;-84
2021/12/13 12:09:22;;;;;;;3.70;1.60;;;6.50;99.90;;;;;;5022830;28;20098;-85
2021/12/13 12:12:16;;;;;;;2.20;1.85;;;6.50;99.90;;;;;;5014051;28;20054;-84
2021/12/13 12:14:47;;;;;;;1.67;1.55;;;6.50;99.90;;;;;;5014435;28;20081;-84
2021/12/13 12:17:14;;;;;;;2.67;2.00;;;6.50;99.90;;;;;;5013049;28;20018;-86
2021/12/13 12:19:41;;;;;;;9.73;2.10;;;6.50;99.90;;;;;;5016112;28;20034;-87
2021/12/13 12:22:16;;;;;;;3.10;1.80;;;6.40;99.90;;;;;;5007318;28;20037;-85
2021/12/13 12:24:48;;;;;;;2.40;1.63;;;6.40;99.90;;;;;;5011722;28;20018;-86
2021/12/13 12:27:24;;;;;;;4.18;1.77;;;6.50;99.90;;;;;;5010760;28;20010;-86
2021/12/13 12:29:56;;;;;;;3.03;1.73;;;6.50;99.90;;;;;;5016821;28;20061;-86
2021/12/13 12:32:27;;;;;;;2.60;1.67;;;6.50;99.90;;;;;;5016783;28;20033;-85
2021/12/13 12:34:59;;;;;;;2.50;2.05;;;6.60;99.90;;;;;;5012972;28;20030;-87
2021/12/13 12:37:30;;;;;;;2.22;1.42;;;6.50;99.90;;;;;;5003840;28;20042;-86
2021/12/13 12:40:08;;;;;;;2.60;1.63;;;6.50;99.90;;;;;;4997234;28;20053;-86
2021/12/13 12:42:35;;;;;;;2.58;1.73;;;6.50;99.90;;;;;;4996298;28;20046;-86
2021/12/13 12:45:12;;;;;;;2.03;1.55;;;6.50;99.90;;;;;;4996434;28;20107;-87
2021/12/13 12:47:46;;;;;;;3.17;1.67;;;6.50;99.90;;;;;;4997554;28;20019;-83
2021/12/13 12:50:22;;;;;;;5.88;1.92;;;6.60;99.90;;;;;;5002090;28;20023;-84
2021/12/13 12:52:58;;;;;;;3.40;1.98;;;6.60;99.90;;;;;;5002154;28;20070;-84
2021/12/13 12:55:35;;;;;;;5.00;1.60;;;6.70;99.90;;;;;;5000832;28;20019;-85
2021/12/13 12:58:29;;;;;;;3.50;1.85;;;6.70;99.90;;;;;;5044848;23;20324;-89
2021/12/13 13:00:59;;;;;;;2.10;1.73;;;6.80;99.90;;;;;;5014401;28;20537;-88
2021/12/13 13:03:35;;;;;;;5.57;1.95;;;6.80;99.90;;;;;;5019685;28;20082;-87
2021/12/13 13:06:10;;;;;;;5.40;1.90;;;6.80;99.90;;;;;;5020912;28;20022;-87
2021/12/13 13:08:40;;;;;;;2.88;1.95;;;6.80;99.90;;;;;;5002391;28;20030;-88
2021/12/13 13:14:03;;;;;;;6.50;1.90;;;6.80;99.90;;;;;;5000430;28;20041;-88
2021/12/13 13:16:35;;;;;;;2.25;1.83;;;6.80;99.90;;;;;;5019889;28;20033;-87
2021/12/13 13:19:04;;;;;;;2.83;1.75;;;6.80;99.90;;;;;;5013098;28;20045;-88
2021/12/13 13:21:31;;;;;;;4.18;1.63;;;6.90;99.90;;;;;;5017937;28;20027;-89
2021/12/13 13:24:00;;;;;;;2.42;1.70;;;6.80;99.90;;;;;;4988058;28;20031;-89
2021/12/13 13:26:31;;;;;;;1.88;1.50;;;6.80;99.90;;;;;;4993217;28;20046;-87
2021/12/13 13:29:06;;;;;;;1.73;1.52;;;6.70;99.90;;;;;;5015164;28;20035;-88
2021/12/13 13:31:37;;;;;;;4.72;1.83;;;6.80;99.90;;;;;;4997311;28;20054;-87
2021/12/13 13:34:13;;;;;;;2.38;1.90;;;6.70;99.90;;;;;;4999877;28;20022;-87
2021/12/13 13:36:46;;;;;;;4.93;1.80;;;6.70;99.90;;;;;;5000538;28;20065;-90
2021/12/13 13:39:23;;;;;;;3.58;1.80;;;6.70;99.90;;;;;;5000729;28;20046;-89
2021/12/13 13:41:56;;;;;;;4.47;1.77;;;6.70;99.90;;;;;;5000950;28;20034;-89
2021/12/13 13:44:25;;;;;;;3.55;2.35;;;6.60;99.90;;;;;;4999561;28;20057;-90
2021/12/13 13:47:13;;;;;;;10.65;4.88;;;6.70;99.90;;;;;;4999161;28;20015;-88
2021/12/13 13:49:40;;;;;;;5.97;2.40;;;6.70;99.90;;;;;;5007389;28;20041;-85